sensor_id;sensor_type;location;lat;lon;timestamp;pressure;altitude;pressure_sealevel;temperature;humidity
75913;BME280;64592;52.168;21.040;2024-02-23T00:03:15;98361.06;;;8.15;100.00
75913;BME280;64592;52.168;21.040;2024-02-23T00:08:18;98354.66;;;8.16;100.00
75913;BME280;64592;52.168;21.040;2024-02-23T00:13:20;98345.09;;;8.13;100.00
75913;BME280;64592;52.168;21.040;2024-02-23T00:18:22;98351.13;;;8.15;100.00
75913;BME280;64592;52.168;21.040;2024-02-23T00:23:25;98345.25;;;8.12;100.00
75913;BME280;64592;52.168;21.040;2024-02-23T00:28:26;98346.78;;;8.14;100.00
75913;BME280;64592;52.168;21.040;2024-02-23T00:33:28;98357.19;;;8.17;100.00
75913;BME280;64592;52.168;21.040;2024-02-23T00:38:31;98334.03;;;8.16;100.00
75913;BME280;64592;52.168;21.040;2024-02-23T00:43:38;98341.09;;;8.17;100.00
75913;BME280;64592;52.168;21.040;2024-02-23T00:48:39;98333.19;;;8.16;100.00
75913;BME280;64592;52.168;21.040;2024-02-23T00:53:42;98328.84;;;8.15;100.00
75913;BME280;64592;52.168;21.040;2024-02-23T00:58:44;98319.94;;;8.14;100.00
75913;BME280;64592;52.168;21.040;2024-02-23T01:03:46;98314.41;;;8.16;100.00
75913;BME280;64592;52.168;21.040;2024-02-23T01:08:49;98308.38;;;8.14;100.00
75913;BME280;64592;52.168;21.040;2024-02-23T01:13:50;98302.31;;;8.12;100.00
75913;BME280;64592;52.168;21.040;2024-02-23T01:18:52;98297.94;;;8.11;100.00
75913;BME280;64592;52.168;21.040;2024-02-23T01:23:55;98293.69;;;8.08;100.00
75913;BME280;64592;52.168;21.040;2024-02-23T01:28:57;98293.69;;;8.08;100.00
75913;BME280;64592;52.168;21.040;2024-02-23T01:33:59;98288.66;;;8.05;100.00
75913;BME280;64592;52.168;21.040;2024-02-23T01:39:02;98286.97;;;8.04;100.00
75913;BME280;64592;52.168;21.040;2024-02-23T01:44:04;98288.09;;;8.02;100.00
75913;BME280;64592;52.168;21.040;2024-02-23T01:49:07;98292.63;;;8.01;100.00
75913;BME280;64592;52.168;21.040;2024-02-23T01:54:10;98294.31;;;8.02;100.00
75913;BME280;64592;52.168;21.040;2024-02-23T01:59:13;98282.44;;;8.05;100.00
75913;BME280;64592;52.168;21.040;2024-02-23T02:04:15;98290.50;;;8.05;100.00
75913;BME280;64592;52.168;21.040;2024-02-23T02:09:18;98278.75;;;8.06;100.00
75913;BME280;64592;52.168;21.040;2024-02-23T02:14:19;98282.97;;;8.08;100.00
75913;BME280;64592;52.168;21.040;2024-02-23T02:19:21;98277.44;;;8.10;100.00
75913;BME280;64592;52.168;21.040;2024-02-23T02:24:24;98268.25;;;8.12;100.00
75913;BME280;64592;52.168;21.040;2024-02-23T02:29:26;98264.25;;;8.16;100.00
75913;BME280;64592;52.168;21.040;2024-02-23T02:34:28;98275.84;;;8.17;100.00
75913;BME280;64592;52.168;21.040;2024-02-23T02:39:31;98258.91;;;8.16;100.00
75913;BME280;64592;52.168;21.040;2024-02-23T02:44:33;98263.97;;;8.19;100.00
75913;BME280;64592;52.168;21.040;2024-02-23T02:49:34;98259.44;;;8.20;100.00
75913;BME280;64592;52.168;21.040;2024-02-23T02:54:37;98259.13;;;8.23;100.00
75913;BME280;64592;52.168;21.040;2024-02-23T02:59:39;98267.88;;;8.25;100.00
75913;BME280;64592;52.168;21.040;2024-02-23T03:04:47;98273.81;;;8.29;100.00
75913;BME280;64592;52.168;21.040;2024-02-23T03:09:50;98270.94;;;8.30;100.00
75913;BME280;64592;52.168;21.040;2024-02-23T03:14:52;98266.31;;;8.32;100.00
75913;BME280;64592;52.168;21.040;2024-02-23T03:19:53;98268.13;;;8.32;100.00
75913;BME280;64592;52.168;21.040;2024-02-23T03:24:56;98281.69;;;8.30;100.00
75913;BME280;64592;52.168;21.040;2024-02-23T03:29:58;98281.84;;;8.29;100.00
75913;BME280;64592;52.168;21.040;2024-02-23T03:35:02;98289.69;;;8.22;100.00
75913;BME280;64592;52.168;21.040;2024-02-23T03:40:07;98284.59;;;8.19;100.00
75913;BME280;64592;52.168;21.040;2024-02-23T03:45:10;98289.59;;;8.14;100.00
75913;BME280;64592;52.168;21.040;2024-02-23T03:50:12;98287.34;;;8.09;100.00
75913;BME280;64592;52.168;21.040;2024-02-23T03:55:15;98301.38;;;8.03;100.00
75913;BME280;64592;52.168;21.040;2024-02-23T04:00:17;98304.19;;;8.02;100.00
75913;BME280;64592;52.168;21.040;2024-02-23T04:05:19;98304.50;;;7.99;100.00
75913;BME280;64592;52.168;21.040;2024-02-23T04:10:22;98315.66;;;7.94;100.00
75913;BME280;64592;52.168;21.040;2024-02-23T04:15:24;98314.16;;;7.92;100.00
75913;BME280;64592;52.168;21.040;2024-02-23T04:20:26;98319.81;;;7.89;100.00
75913;BME280;64592;52.168;21.040;2024-02-23T04:25:29;98321.78;;;7.87;100.00
75913;BME280;64592;52.168;21.040;2024-02-23T04:30:31;98327.31;;;7.85;100.00
75913;BME280;64592;52.168;21.040;2024-02-23T04:35:32;98338.19;;;7.84;100.00
75913;BME280;64592;52.168;21.040;2024-02-23T04:40:35;98333.44;;;7.77;100.00
75913;BME280;64592;52.168;21.040;2024-02-23T04:45:37;98337.09;;;7.76;100.00
75913;BME280;64592;52.168;21.040;2024-02-23T04:50:39;98338.38;;;7.72;100.00
75913;BME280;64592;52.168;21.040;2024-02-23T04:55:42;98342.03;;;7.71;100.00
75913;BME280;64592;52.168;21.040;2024-02-23T05:00:44;98354.44;;;7.72;100.00
75913;BME280;64592;52.168;21.040;2024-02-23T05:05:45;98355.44;;;7.71;100.00
75913;BME280;64592;52.168;21.040;2024-02-23T05:10:48;98360.97;;;7.70;100.00
75913;BME280;64592;52.168;21.040;2024-02-23T05:15:50;98365.50;;;7.69;100.00
75913;BME280;64592;52.168;21.040;2024-02-23T05:20:52;98365.06;;;7.64;100.00
75913;BME280;64592;52.168;21.040;2024-02-23T05:25:55;98378.47;;;7.64;100.00
75913;BME280;64592;52.168;21.040;2024-02-23T05:30:56;98378.66;;;7.63;100.00
75913;BME280;64592;52.168;21.040;2024-02-23T05:35:58;98384.81;;;7.63;100.00
75913;BME280;64592;52.168;21.040;2024-02-23T05:41:01;98393.03;;;7.62;100.00
75913;BME280;64592;52.168;21.040;2024-02-23T05:46:05;98397.84;;;7.58;100.00
75913;BME280;64592;52.168;21.040;2024-02-23T05:51:07;98397.28;;;7.55;100.00
75913;BME280;64592;52.168;21.040;2024-02-23T05:56:10;98413.91;;;7.58;100.00
75913;BME280;64592;52.168;21.040;2024-02-23T06:01:12;98419.28;;;7.58;100.00
75913;BME280;64592;52.168;21.040;2024-02-23T06:06:14;98422.41;;;7.54;100.00
75913;BME280;64592;52.168;21.040;2024-02-23T06:11:17;98427.91;;;7.52;100.00
75913;BME280;64592;52.168;21.040;2024-02-23T06:16:18;98439.34;;;7.54;100.00
75913;BME280;64592;52.168;21.040;2024-02-23T06:21:20;98441.44;;;7.51;100.00
75913;BME280;64592;52.168;21.040;2024-02-23T06:26:23;98456.41;;;7.53;100.00
75913;BME280;64592;52.168;21.040;2024-02-23T06:31:25;98452.88;;;7.53;100.00
75913;BME280;64592;52.168;21.040;2024-02-23T06:36:27;98467.84;;;7.55;100.00
75913;BME280;64592;52.168;21.040;2024-02-23T06:41:30;98474.75;;;7.58;100.00
75913;BME280;64592;52.168;21.040;2024-02-23T06:46:32;98468.38;;;7.59;100.00
75913;BME280;64592;52.168;21.040;2024-02-23T06:51:34;98471.78;;;7.61;100.00
75913;BME280;64592;52.168;21.040;2024-02-23T06:56:37;98481.66;;;7.60;100.00
75913;BME280;64592;52.168;21.040;2024-02-23T07:01:47;98486.19;;;7.60;100.00
75913;BME280;64592;52.168;21.040;2024-02-23T07:06:49;98488.13;;;7.67;100.00
75913;BME280;64592;52.168;21.040;2024-02-23T07:11:52;98498.72;;;7.69;100.00
75913;BME280;64592;52.168;21.040;2024-02-23T07:16:54;98510.13;;;7.71;100.00
75913;BME280;64592;52.168;21.040;2024-02-23T07:21:55;98505.94;;;7.68;100.00
75913;BME280;64592;52.168;21.040;2024-02-23T07:26:58;98520.31;;;7.67;100.00
75913;BME280;64592;52.168;21.040;2024-02-23T07:32:00;98526.41;;;7.69;100.00
75913;BME280;64592;52.168;21.040;2024-02-23T07:37:02;98522.88;;;7.69;100.00
75913;BME280;64592;52.168;21.040;2024-02-23T07:42:05;98527.06;;;7.71;100.00
75913;BME280;64592;52.168;21.040;2024-02-23T07:47:09;98535.97;;;7.72;100.00
75913;BME280;64592;52.168;21.040;2024-02-23T07:52:11;98546.28;;;7.76;100.00
75913;BME280;64592;52.168;21.040;2024-02-23T07:57:14;98555.03;;;7.78;100.00
75913;BME280;64592;52.168;21.040;2024-02-23T08:02:17;98558.28;;;7.82;100.00
75913;BME280;64592;52.168;21.040;2024-02-23T08:07:18;98561.50;;;7.86;100.00
75913;BME280;64592;52.168;21.040;2024-02-23T08:12:21;98572.53;;;7.92;100.00
75913;BME280;64592;52.168;21.040;2024-02-23T08:17:23;98581.72;;;7.90;100.00
75913;BME280;64592;52.168;21.040;2024-02-23T08:22:25;98589.31;;;7.94;100.00
75913;BME280;64592;52.168;21.040;2024-02-23T08:27:29;98599.06;;;7.95;100.00
75913;BME280;64592;52.168;21.040;2024-02-23T08:32:31;98599.19;;;7.94;100.00
75913;BME280;64592;52.168;21.040;2024-02-23T08:37:32;98610.38;;;7.99;100.00
75913;BME280;64592;52.168;21.040;2024-02-23T08:42:35;98599.34;;;8.02;100.00
75913;BME280;64592;52.168;21.040;2024-02-23T08:47:37;98614.19;;;8.06;100.00
75913;BME280;64592;52.168;21.040;2024-02-23T08:52:39;98617.72;;;8.06;100.00
75913;BME280;64592;52.168;21.040;2024-02-23T08:57:42;98633.63;;;8.08;100.00
75913;BME280;64592;52.168;21.040;2024-02-23T09:02:43;98630.81;;;8.09;100.00
75913;BME280;64592;52.168;21.040;2024-02-23T09:07:45;98641.16;;;8.14;100.00
75913;BME280;64592;52.168;21.040;2024-02-23T09:12:48;98638.03;;;8.18;100.00
75913;BME280;64592;52.168;21.040;2024-02-23T09:17:50;98641.41;;;8.21;100.00
75913;BME280;64592;52.168;21.040;2024-02-23T09:22:51;98653.41;;;8.26;100.00
75913;BME280;64592;52.168;21.040;2024-02-23T09:27:57;98649.44;;;8.30;100.00
75913;BME280;64592;52.168;21.040;2024-02-23T09:32:59;98647.94;;;8.37;100.00
75913;BME280;64592;52.168;21.040;2024-02-23T09:38:01;98655.09;;;8.46;100.00
75913;BME280;64592;52.168;21.040;2024-02-23T09:43:07;98658.34;;;8.50;100.00
75913;BME280;64592;52.168;21.040;2024-02-23T09:48:13;98662.28;;;8.55;100.00
75913;BME280;64592;52.168;21.040;2024-02-23T09:53:16;98682.34;;;8.61;100.00
75913;BME280;64592;52.168;21.040;2024-02-23T09:58:20;98688.56;;;8.62;100.00
75913;BME280;64592;52.168;21.040;2024-02-23T10:03:24;98688.56;;;8.62;100.00
75913;BME280;64592;52.168;21.040;2024-02-23T10:08:28;98701.00;;;8.63;100.00
75913;BME280;64592;52.168;21.040;2024-02-23T10:13:31;98692.81;;;8.64;100.00
75913;BME280;64592;52.168;21.040;2024-02-23T10:18:33;98691.84;;;8.65;100.00
75913;BME280;64592;52.168;21.040;2024-02-23T10:23:35;98698.44;;;8.71;100.00
75913;BME280;64592;52.168;21.040;2024-02-23T10:28:38;98710.59;;;8.75;100.00
75913;BME280;64592;52.168;21.040;2024-02-23T10:33:40;98715.69;;;8.78;100.00
75913;BME280;64592;52.168;21.040;2024-02-23T10:38:45;98721.06;;;8.78;100.00
75913;BME280;64592;52.168;21.040;2024-02-23T10:43:49;98723.75;;;8.78;100.00
75913;BME280;64592;52.168;21.040;2024-02-23T10:48:52;98735.34;;;8.78;100.00
75913;BME280;64592;52.168;21.040;2024-02-23T10:53:56;98745.09;;;8.79;100.00
75913;BME280;64592;52.168;21.040;2024-02-23T10:59:00;98744.25;;;8.79;100.00
75913;BME280;64592;52.168;21.040;2024-02-23T11:04:02;98746.63;;;8.82;100.00
75913;BME280;64592;52.168;21.040;2024-02-23T11:09:07;98750.03;;;8.84;100.00
75913;BME280;64592;52.168;21.040;2024-02-23T11:14:11;98755.25;;;8.85;100.00
75913;BME280;64592;52.168;21.040;2024-02-23T11:19:14;98772.25;;;8.86;100.00
75913;BME280;64592;52.168;21.040;2024-02-23T11:24:16;98774.78;;;8.87;100.00
75913;BME280;64592;52.168;21.040;2024-02-23T11:29:19;98777.34;;;8.89;100.00
75913;BME280;64592;52.168;21.040;2024-02-23T11:34:22;98784.56;;;8.88;100.00
75913;BME280;64592;52.168;21.040;2024-02-23T11:39:26;98796.81;;;8.91;100.00
75913;BME280;64592;52.168;21.040;2024-02-23T11:44:29;98799.38;;;8.92;100.00
75913;BME280;64592;52.168;21.040;2024-02-23T11:49:30;98795.69;;;8.93;100.00
75913;BME280;64592;52.168;21.040;2024-02-23T11:54:32;98807.84;;;8.98;100.00
75913;BME280;64592;52.168;21.040;2024-02-23T11:59:35;98819.88;;;9.03;100.00
75913;BME280;64592;52.168;21.040;2024-02-23T12:04:37;98817.03;;;9.05;100.00
75913;BME280;64592;52.168;21.040;2024-02-23T12:09:39;98821.41;;;9.06;100.00
75913;BME280;64592;52.168;21.040;2024-02-23T12:14:43;98819.56;;;9.06;100.00
75913;BME280;64592;52.168;21.040;2024-02-23T12:19:45;98828.34;;;9.08;100.00
75913;BME280;64592;52.168;21.040;2024-02-23T12:24:46;98833.16;;;9.14;100.00
75913;BME280;64592;52.168;21.040;2024-02-23T12:29:52;98841.78;;;9.18;100.00
75913;BME280;64592;52.168;21.040;2024-02-23T12:34:54;98849.69;;;9.19;100.00
75913;BME280;64592;52.168;21.040;2024-02-23T12:39:56;98845.88;;;9.22;100.00
75913;BME280;64592;52.168;21.040;2024-02-23T12:44:59;98850.13;;;9.24;100.00
75913;BME280;64592;52.168;21.040;2024-02-23T12:50:00;98846.84;;;9.30;100.00
75913;BME280;64592;52.168;21.040;2024-02-23T12:55:02;98851.53;;;9.28;100.00
75913;BME280;64592;52.168;21.040;2024-02-23T13:00:07;98852.22;;;9.30;100.00
75913;BME280;64592;52.168;21.040;2024-02-23T13:05:09;98865.66;;;9.30;100.00
75913;BME280;64592;52.168;21.040;2024-02-23T13:10:10;98872.44;;;9.34;100.00
75913;BME280;64592;52.168;21.040;2024-02-23T13:15:14;98869.94;;;9.33;100.00
75913;BME280;64592;52.168;21.040;2024-02-23T13:20:16;98879.53;;;9.35;100.00
75913;BME280;64592;52.168;21.040;2024-02-23T13:25:17;98874.16;;;9.35;100.00
75913;BME280;64592;52.168;21.040;2024-02-23T13:30:21;98904.31;;;9.39;100.00
75913;BME280;64592;52.168;21.040;2024-02-23T13:35:23;98899.19;;;9.36;100.00
75913;BME280;64592;52.168;21.040;2024-02-23T13:40:25;98900.34;;;9.33;100.00
75913;BME280;64592;52.168;21.040;2024-02-23T13:45:28;98916.50;;;9.33;100.00
75913;BME280;64592;52.168;21.040;2024-02-23T13:50:30;98911.78;;;9.35;100.00
75913;BME280;64592;52.168;21.040;2024-02-23T13:55:31;98918.88;;;9.37;100.00
75913;BME280;64592;52.168;21.040;2024-02-23T14:00:35;98909.09;;;9.35;100.00
75913;BME280;64592;52.168;21.040;2024-02-23T14:05:36;98917.88;;;9.38;100.00
75913;BME280;64592;52.168;21.040;2024-02-23T14:10:38;98908.13;;;9.37;100.00
75913;BME280;64592;52.168;21.040;2024-02-23T14:15:44;98916.50;;;9.33;100.00
75913;BME280;64592;52.168;21.040;2024-02-23T14:20:46;98927.25;;;9.33;100.00
75913;BME280;64592;52.168;21.040;2024-02-23T14:25:47;98921.44;;;9.28;100.00
75913;BME280;64592;52.168;21.040;2024-02-23T14:30:50;98938.41;;;9.29;100.00
75913;BME280;64592;52.168;21.040;2024-02-23T14:35:53;98954.69;;;9.27;100.00
75913;BME280;64592;52.168;21.040;2024-02-23T14:40:56;98961.22;;;9.25;100.00
75913;BME280;64592;52.168;21.040;2024-02-23T14:45:59;98958.94;;;9.20;100.00
75913;BME280;64592;52.168;21.040;2024-02-23T14:51:00;98973.94;;;9.23;100.00
75913;BME280;64592;52.168;21.040;2024-02-23T14:56:05;98982.88;;;9.23;100.00
75913;BME280;64592;52.168;21.040;2024-02-23T15:01:08;98986.66;;;9.21;100.00
75913;BME280;64592;52.168;21.040;2024-02-23T15:06:10;98988.50;;;9.20;100.00
75913;BME280;64592;52.168;21.040;2024-02-23T15:11:12;98981.16;;;9.22;100.00
75913;BME280;64592;52.168;21.040;2024-02-23T15:16:15;98990.06;;;9.23;100.00
75913;BME280;64592;52.168;21.040;2024-02-23T15:21:16;98984.56;;;9.24;100.00
75913;BME280;64592;52.168;21.040;2024-02-23T15:26:19;98990.63;;;9.26;100.00
75913;BME280;64592;52.168;21.040;2024-02-23T15:31:22;98987.94;;;9.26;100.00
75913;BME280;64592;52.168;21.040;2024-02-23T15:36:23;98989.63;;;9.27;100.00
75913;BME280;64592;52.168;21.040;2024-02-23T15:41:25;99001.38;;;9.26;100.00
75913;BME280;64592;52.168;21.040;2024-02-23T15:46:28;99003.09;;;9.27;100.00
75913;BME280;64592;52.168;21.040;2024-02-23T15:51:31;99024.59;;;9.27;100.00
75913;BME280;64592;52.168;21.040;2024-02-23T15:56:34;99038.03;;;9.27;100.00
75913;BME280;64592;52.168;21.040;2024-02-23T16:01:37;99031.97;;;9.25;100.00
75913;BME280;64592;52.168;21.040;2024-02-23T16:06:39;99033.94;;;9.23;100.00
75913;BME280;64592;52.168;21.040;2024-02-23T16:11:44;99037.63;;;9.22;100.00
75913;BME280;64592;52.168;21.040;2024-02-23T16:16:47;99054.59;;;9.23;100.00
75913;BME280;64592;52.168;21.040;2024-02-23T16:21:49;99062.81;;;9.21;100.00
75913;BME280;64592;52.168;21.040;2024-02-23T16:26:50;99076.53;;;9.18;100.00
75913;BME280;64592;52.168;21.040;2024-02-23T16:31:53;99082.91;;;9.17;100.00
75913;BME280;64592;52.168;21.040;2024-02-23T16:36:55;99091.97;;;9.16;100.00
75913;BME280;64592;52.168;21.040;2024-02-23T16:41:57;99093.06;;;9.14;100.00
75913;BME280;64592;52.168;21.040;2024-02-23T16:47:00;99088.69;;;9.13;100.00
75913;BME280;64592;52.168;21.040;2024-02-23T16:52:03;99081.59;;;9.12;100.00
75913;BME280;64592;52.168;21.040;2024-02-23T16:57:05;99091.91;;;9.07;100.00
75913;BME280;64592;52.168;21.040;2024-02-23T17:02:08;99097.03;;;9.10;100.00
75913;BME280;64592;52.168;21.040;2024-02-23T17:07:10;99113.28;;;9.08;100.00
75913;BME280;64592;52.168;21.040;2024-02-23T17:12:12;99101.81;;;9.06;100.00
75913;BME280;64592;52.168;21.040;2024-02-23T17:17:17;99108.91;;;9.07;100.00
75913;BME280;64592;52.168;21.040;2024-02-23T17:22:19;99100.13;;;9.05;100.00
75913;BME280;64592;52.168;21.040;2024-02-23T17:27:25;99090.34;;;9.04;100.00
75913;BME280;64592;52.168;21.040;2024-02-23T17:32:29;99095.88;;;9.03;100.00
75913;BME280;64592;52.168;21.040;2024-02-23T17:37:30;99101.38;;;9.01;100.00
75913;BME280;64592;52.168;21.040;2024-02-23T17:42:32;99084.53;;;8.99;100.00
75913;BME280;64592;52.168;21.040;2024-02-23T17:47:35;99086.50;;;8.97;100.00
75913;BME280;64592;52.168;21.040;2024-02-23T17:52:37;99082.41;;;8.93;100.00
75913;BME280;64592;52.168;21.040;2024-02-23T17:57:39;99087.91;;;8.91;100.00
75913;BME280;64592;52.168;21.040;2024-02-23T18:02:42;99094.13;;;8.92;100.00
75913;BME280;64592;52.168;21.040;2024-02-23T18:07:44;99102.34;;;8.90;100.00
75913;BME280;64592;52.168;21.040;2024-02-23T18:12:45;99125.84;;;8.88;100.00
75913;BME280;64592;52.168;21.040;2024-02-23T18:17:48;99118.88;;;8.86;100.00
75913;BME280;64592;52.168;21.040;2024-02-23T18:22:51;99129.63;;;8.86;100.00
75913;BME280;64592;52.168;21.040;2024-02-23T18:27:53;99134.03;;;8.87;100.00
75913;BME280;64592;52.168;21.040;2024-02-23T18:32:56;99126.09;;;8.85;100.00
75913;BME280;64592;52.168;21.040;2024-02-23T18:37:58;99122.53;;;8.85;100.00
75913;BME280;64592;52.168;21.040;2024-02-23T18:43:00;99112.78;;;8.84;100.00
75913;BME280;64592;52.168;21.040;2024-02-23T18:48:04;99124.50;;;8.83;100.00
75913;BME280;64592;52.168;21.040;2024-02-23T18:53:06;99121.81;;;8.83;100.00
75913;BME280;64592;52.168;21.040;2024-02-23T18:58:08;99129.88;;;8.83;100.00
75913;BME280;64592;52.168;21.040;2024-02-23T19:03:11;99113.06;;;8.81;100.00
75913;BME280;64592;52.168;21.040;2024-02-23T19:08:12;99126.63;;;8.79;100.00
75913;BME280;64592;52.168;21.040;2024-02-23T19:13:14;99121.38;;;8.78;100.00
75913;BME280;64592;52.168;21.040;2024-02-23T19:18:18;99126.03;;;8.76;100.00
75913;BME280;64592;52.168;21.040;2024-02-23T19:23:20;99124.31;;;8.75;100.00
75913;BME280;64592;52.168;21.040;2024-02-23T19:28:22;99129.00;;;8.73;100.00
75913;BME280;64592;52.168;21.040;2024-02-23T19:33:25;99126.31;;;8.73;100.00
75913;BME280;64592;52.168;21.040;2024-02-23T19:38:27;99141.00;;;8.69;100.00
75913;BME280;64592;52.168;21.040;2024-02-23T19:43:29;99149.19;;;8.67;100.00
75913;BME280;64592;52.168;21.040;2024-02-23T19:48:32;99158.38;;;8.65;100.00
75913;BME280;64592;52.168;21.040;2024-02-23T19:53:34;99158.38;;;8.65;100.00
75913;BME280;64592;52.168;21.040;2024-02-23T19:58:35;99168.41;;;8.63;100.00
75913;BME280;64592;52.168;21.040;2024-02-23T20:03:39;99164.97;;;8.61;100.00
75913;BME280;64592;52.168;21.040;2024-02-23T20:08:40;99164.97;;;8.61;100.00
75913;BME280;64592;52.168;21.040;2024-02-23T20:13:42;99168.66;;;8.60;100.00
75913;BME280;64592;52.168;21.040;2024-02-23T20:18:48;99165.25;;;8.57;100.00
75913;BME280;64592;52.168;21.040;2024-02-23T20:23:49;99152.81;;;8.56;100.00
75913;BME280;64592;52.168;21.040;2024-02-23T20:28:51;99163.56;;;8.56;100.00
75913;BME280;64592;52.168;21.040;2024-02-23T20:33:54;99152.81;;;8.56;100.00
75913;BME280;64592;52.168;21.040;2024-02-23T20:38:56;99160.28;;;8.53;100.00
75913;BME280;64592;52.168;21.040;2024-02-23T20:43:57;99156.03;;;8.50;100.00
75913;BME280;64592;52.168;21.040;2024-02-23T20:49:01;99162.63;;;8.46;100.00
75913;BME280;64592;52.168;21.040;2024-02-23T20:54:04;99151.91;;;8.46;100.00
75913;BME280;64592;52.168;21.040;2024-02-23T20:59:07;99151.19;;;8.44;100.00
75913;BME280;64592;52.168;21.040;2024-02-23T21:04:10;99122.69;;;8.32;100.00
75913;BME280;64592;52.168;21.040;2024-02-23T21:09:11;99135.34;;;8.41;100.00
75913;BME280;64592;52.168;21.040;2024-02-23T21:14:13;99133.63;;;8.40;100.00
75913;BME280;64592;52.168;21.040;2024-02-23T21:19:18;99135.59;;;8.38;100.00
75913;BME280;64592;52.168;21.040;2024-02-23T21:24:19;99132.34;;;8.35;100.00
75913;BME280;64592;52.168;21.040;2024-02-23T21:29:21;99142.22;;;8.34;100.00
75913;BME280;64592;52.168;21.040;2024-02-23T21:34:25;99133.44;;;8.32;100.00
75913;BME280;64592;52.168;21.040;2024-02-23T21:39:26;99135.28;;;8.32;100.00
75913;BME280;64592;52.168;21.040;2024-02-23T21:44:28;99134.53;;;8.30;100.00
75913;BME280;64592;52.168;21.040;2024-02-23T21:49:31;99141.00;;;8.27;100.00
75913;BME280;64592;52.168;21.040;2024-02-23T21:54:33;99141.00;;;8.27;100.00
75913;BME280;64592;52.168;21.040;2024-02-23T21:59:34;99147.34;;;8.26;100.00
75913;BME280;64592;52.168;21.040;2024-02-23T22:04:37;99140.28;;;8.25;100.00
75913;BME280;64592;52.168;21.040;2024-02-23T22:09:40;99141.25;;;8.24;100.00
75913;BME280;64592;52.168;21.040;2024-02-23T22:14:42;99132.34;;;8.24;100.00
75913;BME280;64592;52.168;21.040;2024-02-23T22:19:45;99115.56;;;8.22;100.00
75913;BME280;64592;52.168;21.040;2024-02-23T22:24:47;99132.75;;;8.19;100.00
75913;BME280;64592;52.168;21.040;2024-02-23T22:29:49;99121.69;;;8.12;100.00
75913;BME280;64592;52.168;21.040;2024-02-23T22:34:52;99121.69;;;8.12;100.00
75913;BME280;64592;52.168;21.040;2024-02-23T22:39:54;99138.91;;;8.10;100.00
75913;BME280;64592;52.168;21.040;2024-02-23T22:44:56;99127.59;;;8.06;100.00
75913;BME280;64592;52.168;21.040;2024-02-23T22:49:59;99132.09;;;8.06;100.00
75913;BME280;64592;52.168;21.040;2024-02-23T22:55:00;99147.34;;;8.05;100.00
75913;BME280;64592;52.168;21.040;2024-02-23T23:00:03;99148.72;;;8.00;100.00
75913;BME280;64592;52.168;21.040;2024-02-23T23:05:06;99158.47;;;8.01;100.00
75913;BME280;64592;52.168;21.040;2024-02-23T23:10:09;99159.72;;;7.97;100.00
75913;BME280;64592;52.168;21.040;2024-02-23T23:15:11;99151.66;;;7.97;100.00
75913;BME280;64592;52.168;21.040;2024-02-23T23:20:14;99141.91;;;7.96;100.00
75913;BME280;64592;52.168;21.040;2024-02-23T23:25:16;99150.94;;;7.95;100.00
75913;BME280;64592;52.168;21.040;2024-02-23T23:30:18;99118.84;;;7.93;100.00
75913;BME280;64592;52.168;21.040;2024-02-23T23:35:21;99103.59;;;7.94;100.00
75913;BME280;64592;52.168;21.040;2024-02-23T23:40:23;99112.66;;;7.93;100.00
75913;BME280;64592;52.168;21.040;2024-02-23T23:45:24;99115.59;;;7.90;100.00
75913;BME280;64592;52.168;21.040;2024-02-23T23:50:27;99109.25;;;7.91;100.00
75913;BME280;64592;52.168;21.040;2024-02-23T23:55:29;99093.53;;;7.86;100.00
